createdAt,value
2017-08-05T00:00:20.539Z,0
2017-08-05T00:01:22.422Z,0
2017-08-05T00:02:24.303Z,0
2017-08-05T00:03:26.197Z,0
2017-08-05T00:04:40.357Z,0
2017-08-05T00:05:42.244Z,0
2017-08-05T00:06:44.130Z,0
2017-08-05T00:07:46.015Z,0
2017-08-05T00:08:47.839Z,0
2017-08-05T00:09:49.657Z,0
2017-08-05T00:10:51.551Z,0
2017-08-05T00:11:53.437Z,0
2017-08-05T00:12:55.323Z,0
2017-08-05T00:14:09.492Z,0
2017-08-05T00:15:11.374Z,0
2017-08-05T00:16:13.269Z,0
2017-08-05T00:17:15.155Z,0
2017-08-05T00:18:16.992Z,0
2017-08-05T00:19:18.810Z,0
2017-08-05T00:20:20.691Z,0
2017-08-05T00:21:22.576Z,0
2017-08-05T00:22:24.461Z,0
2017-08-05T00:23:38.617Z,0
2017-08-05T00:24:40.497Z,0
2017-08-05T00:25:42.380Z,0
2017-08-05T00:26:44.277Z,0
2017-08-05T00:27:46.100Z,0
2017-08-05T00:28:47.920Z,0
2017-08-05T00:29:49.810Z,0
2017-08-05T00:30:51.688Z,0
2017-08-05T00:31:53.574Z,0
2017-08-05T00:33:07.733Z,0
2017-08-05T00:34:09.614Z,0
2017-08-05T00:35:11.501Z,0
2017-08-05T00:36:13.399Z,0
2017-08-05T00:37:15.223Z,0
2017-08-05T00:38:17.043Z,0
2017-08-05T00:39:18.940Z,0
2017-08-05T00:40:20.820Z,0
2017-08-05T00:41:22.718Z,0
2017-08-05T00:42:36.919Z,0
2017-08-05T00:43:38.801Z,0
2017-08-05T00:44:40.694Z,0
2017-08-05T00:45:42.579Z,0
2017-08-05T00:46:44.414Z,0
2017-08-05T00:47:46.245Z,0
2017-08-05T00:48:48.139Z,0
2017-08-05T00:49:50.024Z,0
2017-08-05T00:50:51.909Z,0
2017-08-05T00:52:06.064Z,0
2017-08-05T00:53:07.958Z,0
2017-08-05T00:54:09.843Z,0
2017-08-05T00:55:11.729Z,0
2017-08-05T00:56:13.553Z,0
2017-08-05T00:57:15.374Z,0
2017-08-05T00:58:17.287Z,0
2017-08-05T00:59:19.152Z,0
2017-08-05T01:00:21.039Z,0
2017-08-05T01:01:35.197Z,0
2017-08-05T01:02:37.082Z,0
2017-08-05T01:03:38.965Z,0
2017-08-05T01:04:40.859Z,0
2017-08-05T01:05:42.691Z,0
2017-08-05T01:06:44.512Z,0
2017-08-05T01:07:46.394Z,0
2017-08-05T01:08:48.277Z,0
2017-08-05T01:09:50.162Z,0
2017-08-05T01:11:04.319Z,0
2017-08-05T01:12:06.200Z,0
2017-08-05T01:13:08.094Z,0
2017-08-05T01:14:09.991Z,0
2017-08-05T01:15:11.828Z,0
2017-08-05T01:16:13.648Z,0
2017-08-05T01:17:15.541Z,0
2017-08-05T01:18:17.425Z,0
2017-08-05T01:19:19.340Z,0
2017-08-05T01:20:33.474Z,0
2017-08-05T01:21:35.360Z,0
2017-08-05T01:22:37.246Z,0
2017-08-05T01:23:39.129Z,0
2017-08-05T01:24:40.953Z,0
2017-08-05T01:25:42.772Z,0
2017-08-05T01:26:44.654Z,0
2017-08-05T01:27:46.539Z,0
2017-08-05T01:28:48.427Z,0
2017-08-05T01:30:02.582Z,0
2017-08-05T01:31:04.462Z,0
2017-08-05T01:32:06.359Z,0
2017-08-05T01:33:08.244Z,0
2017-08-05T01:34:10.069Z,0
2017-08-05T01:35:11.895Z,0
2017-08-05T01:36:13.774Z,0
2017-08-05T01:37:15.667Z,0
2017-08-05T01:38:17.553Z,0
2017-08-05T01:39:31.711Z,0
2017-08-05T01:40:33.594Z,0
2017-08-05T01:41:35.479Z,0
2017-08-05T01:42:37.375Z,0
2017-08-05T01:43:39.201Z,0
2017-08-05T01:44:41.032Z,0
2017-08-05T01:45:42.913Z,0
2017-08-05T01:46:44.795Z,0
2017-08-05T01:47:46.678Z,0
2017-08-05T01:49:00.838Z,0
2017-08-05T01:50:02.721Z,0
2017-08-05T01:51:04.610Z,0
2017-08-05T01:52:06.491Z,0
2017-08-05T01:53:08.317Z,0
2017-08-05T01:54:10.135Z,0
2017-08-05T01:55:14.408Z,0
2017-08-05T01:56:16.300Z,0
2017-08-05T01:57:18.183Z,0
2017-08-05T01:58:32.339Z,0
2017-08-05T01:59:34.220Z,0
2017-08-05T02:00:36.105Z,0
2017-08-05T02:01:37.999Z,0
2017-08-05T02:02:39.825Z,0
2017-08-05T02:03:41.650Z,0
2017-08-05T02:04:43.535Z,0
2017-08-05T02:05:45.427Z,0
2017-08-05T02:06:47.312Z,0
2017-08-05T02:08:01.469Z,0
2017-08-05T02:09:03.354Z,0
2017-08-05T02:10:05.240Z,0
2017-08-05T02:11:07.138Z,0
2017-08-05T02:12:08.964Z,0
2017-08-05T02:13:10.785Z,0
2017-08-05T02:14:12.668Z,0
2017-08-05T02:15:14.559Z,0
2017-08-05T02:16:16.450Z,0
2017-08-05T02:17:30.618Z,0
2017-08-05T02:18:32.499Z,0
2017-08-05T02:19:34.383Z,0
2017-08-05T02:20:36.277Z,0
2017-08-05T02:21:38.103Z,0
2017-08-05T02:22:39.928Z,0
2017-08-05T02:23:41.809Z,0
2017-08-05T02:24:43.701Z,0
2017-08-05T02:25:45.582Z,0
2017-08-05T02:26:59.736Z,0
2017-08-05T02:28:01.617Z,0
2017-08-05T02:29:03.504Z,0
2017-08-05T02:30:05.400Z,0
2017-08-05T02:31:07.226Z,0
2017-08-05T02:32:09.051Z,0
2017-08-05T02:33:10.934Z,0
2017-08-05T02:34:12.828Z,0
2017-08-05T02:35:14.711Z,0
2017-08-05T02:36:28.866Z,0
2017-08-05T02:37:30.753Z,0
2017-08-05T02:38:32.640Z,0
2017-08-05T02:39:34.526Z,0
2017-08-05T02:40:36.354Z,0
2017-08-05T02:41:38.176Z,0
2017-08-05T02:42:40.069Z,0
2017-08-05T02:43:41.953Z,0
2017-08-05T02:44:43.839Z,0
2017-08-05T02:45:57.992Z,0
2017-08-05T02:46:59.877Z,0
2017-08-05T02:48:01.766Z,0
2017-08-05T02:49:03.651Z,0
2017-08-05T02:50:05.475Z,0
2017-08-05T02:51:07.298Z,4
2017-08-05T02:52:09.198Z,4
2017-08-05T02:53:11.074Z,4
2017-08-05T02:54:12.958Z,0
2017-08-05T02:55:27.114Z,4
2017-08-05T02:56:28.995Z,4
2017-08-05T02:57:30.890Z,4
2017-08-05T02:58:32.771Z,4
2017-08-05T02:59:34.599Z,4
2017-08-05T03:00:36.430Z,4
2017-08-05T03:01:38.315Z,8
2017-08-05T03:02:40.210Z,8
2017-08-05T03:03:42.098Z,12
2017-08-05T03:04:56.250Z,12
2017-08-05T03:05:58.131Z,16
2017-08-05T03:07:00.018Z,16
2017-08-05T03:08:01.902Z,16
2017-08-05T03:09:03.729Z,20
2017-08-05T03:10:05.552Z,24
2017-08-05T03:11:07.437Z,28
2017-08-05T03:12:09.321Z,32
2017-08-05T03:13:11.203Z,36
2017-08-05T03:14:25.369Z,44
2017-08-05T03:15:27.254Z,52
2017-08-05T03:16:29.143Z,60
2017-08-05T03:17:31.032Z,68
2017-08-05T03:18:32.859Z,80
2017-08-05T03:19:34.683Z,88
2017-08-05T03:20:36.568Z,96
2017-08-05T03:21:38.452Z,112
2017-08-05T03:22:40.336Z,124
2017-08-05T03:23:54.505Z,140
2017-08-05T03:24:56.388Z,152
2017-08-05T03:25:58.288Z,172
2017-08-05T03:27:00.174Z,188
2017-08-05T03:28:02.007Z,208
2017-08-05T03:29:03.833Z,228
2017-08-05T03:30:05.716Z,248
2017-08-05T03:31:07.599Z,276
2017-08-05T03:32:09.482Z,300
2017-08-05T03:33:23.690Z,328
2017-08-05T03:34:25.577Z,356
2017-08-05T03:35:27.486Z,384
2017-08-05T03:36:29.372Z,416
2017-08-05T03:37:31.200Z,444
2017-08-05T03:38:33.025Z,476
2017-08-05T03:39:34.911Z,512
2017-08-05T03:40:36.793Z,544
2017-08-05T03:41:38.679Z,584
2017-08-05T03:42:52.838Z,628
2017-08-05T03:43:54.723Z,672
2017-08-05T03:44:56.615Z,712
2017-08-05T03:45:58.501Z,752
2017-08-05T03:47:00.329Z,792
2017-08-05T03:48:02.152Z,832
2017-08-05T03:49:04.049Z,872
2017-08-05T03:50:05.935Z,920
2017-08-05T03:51:07.834Z,968
2017-08-05T03:52:22.052Z,1024
2017-08-05T03:53:23.940Z,1068
2017-08-05T03:54:25.840Z,1116
2017-08-05T03:55:27.740Z,1164
2017-08-05T03:56:29.569Z,1216
2017-08-05T03:57:31.402Z,1268
2017-08-05T03:58:33.285Z,1320
2017-08-05T03:59:35.172Z,1372
2017-08-05T04:00:37.058Z,1436
2017-08-05T04:01:51.231Z,1504
2017-08-05T04:02:53.116Z,1608
2017-08-05T04:03:55.007Z,1824
2017-08-05T04:04:56.895Z,2044
2017-08-05T04:05:58.726Z,2188
2017-08-05T04:07:00.551Z,2340
2017-08-05T04:08:02.438Z,2456
2017-08-05T04:09:04.324Z,2540
2017-08-05T04:10:06.213Z,2628
2017-08-05T04:11:20.372Z,2772
2017-08-05T04:12:22.260Z,2900
2017-08-05T04:13:24.150Z,3016
2017-08-05T04:14:26.052Z,3164
2017-08-05T04:15:27.881Z,3312
2017-08-05T04:16:29.708Z,3464
2017-08-05T04:17:31.609Z,3608
2017-08-05T04:18:33.483Z,3728
2017-08-05T04:19:35.371Z,3848
2017-08-05T04:20:49.532Z,3988
2017-08-05T04:21:51.424Z,4052
2017-08-05T04:22:53.311Z,4112
2017-08-05T04:23:55.204Z,4196
2017-08-05T04:24:57.042Z,4312
2017-08-05T04:25:58.869Z,4448
2017-08-05T04:27:00.758Z,4556
2017-08-05T04:28:02.646Z,4652
2017-08-05T04:29:04.534Z,4780
2017-08-05T04:30:18.696Z,4920
2017-08-05T04:31:20.585Z,4984
2017-08-05T04:32:22.475Z,5068
2017-08-05T04:33:24.366Z,5192
2017-08-05T04:34:26.198Z,5344
2017-08-05T04:35:28.039Z,5504
2017-08-05T04:36:29.927Z,5608
2017-08-05T04:37:31.815Z,5696
2017-08-05T04:38:33.703Z,5852
2017-08-05T04:39:47.846Z,6156
2017-08-05T04:40:49.697Z,6316
2017-08-05T04:41:51.593Z,6452
2017-08-05T04:42:53.484Z,6544
2017-08-05T04:43:55.353Z,6640
2017-08-05T04:44:57.195Z,6756
2017-08-05T04:45:59.021Z,6848
2017-08-05T04:47:00.918Z,6964
2017-08-05T04:48:02.818Z,7060
2017-08-05T04:49:17.030Z,7232
2017-08-05T04:50:18.917Z,7428
2017-08-05T04:51:20.808Z,7532
2017-08-05T04:52:22.698Z,7648
2017-08-05T04:53:24.531Z,7796
2017-08-05T04:54:26.358Z,7892
2017-08-05T04:55:28.247Z,8012
2017-08-05T04:56:30.134Z,8116
2017-08-05T04:57:32.036Z,8224
2017-08-05T04:58:46.199Z,8240
2017-08-05T04:59:48.094Z,8368
2017-08-05T05:00:49.982Z,8552
2017-08-05T05:01:51.874Z,8676
2017-08-05T05:02:53.704Z,8772
2017-08-05T05:03:55.536Z,8948
2017-08-05T05:04:57.423Z,9088
2017-08-05T05:05:59.325Z,9212
2017-08-05T05:07:01.212Z,9384
2017-08-05T05:08:15.375Z,9524
2017-08-05T05:09:17.264Z,9528
2017-08-05T05:10:19.157Z,9644
2017-08-05T05:11:21.048Z,9808
2017-08-05T05:12:22.881Z,10024
2017-08-05T05:13:24.713Z,10108
2017-08-05T05:14:26.602Z,10160
2017-08-05T05:15:28.500Z,10144
2017-08-05T05:16:30.390Z,8716
2017-08-05T05:17:44.566Z,5952
2017-08-05T05:18:46.452Z,5192
2017-08-05T05:19:48.347Z,5080
2017-08-05T05:20:50.241Z,5004
2017-08-05T05:21:52.082Z,4948
2017-08-05T05:22:53.914Z,4912
2017-08-05T05:23:55.808Z,4880
2017-08-05T05:24:57.694Z,4836
2017-08-05T05:25:59.592Z,4788
2017-08-05T05:27:13.753Z,4752
2017-08-05T05:28:15.641Z,4724
2017-08-05T05:29:17.534Z,4696
2017-08-05T05:30:19.421Z,4668
2017-08-05T05:31:21.260Z,4628
2017-08-05T05:32:23.091Z,4592
2017-08-05T05:33:24.976Z,4552
2017-08-05T05:34:26.872Z,4504
2017-08-05T05:35:28.770Z,4448
2017-08-05T05:36:42.978Z,4372
2017-08-05T05:37:44.864Z,4296
2017-08-05T05:38:46.758Z,4212
2017-08-05T05:39:48.647Z,4136
2017-08-05T05:40:50.481Z,4072
2017-08-05T05:41:52.310Z,4028
2017-08-05T05:42:54.199Z,3988
2017-08-05T05:43:56.097Z,3960
2017-08-05T05:44:57.985Z,3944
2017-08-05T05:46:12.159Z,3940
2017-08-05T05:47:14.046Z,3936
2017-08-05T05:48:15.939Z,3936
2017-08-05T05:49:17.830Z,3932
2017-08-05T05:50:19.662Z,3932
2017-08-05T05:51:21.492Z,3924
2017-08-05T05:52:23.381Z,3924
2017-08-05T05:53:25.267Z,3920
2017-08-05T05:54:27.167Z,3920
2017-08-05T05:55:41.328Z,3916
2017-08-05T05:56:43.219Z,3912
2017-08-05T05:57:45.109Z,3912
2017-08-05T05:58:47.012Z,3904
2017-08-05T05:59:48.843Z,3900
2017-08-05T06:00:50.671Z,3884
2017-08-05T06:01:52.558Z,3876
2017-08-05T06:02:54.404Z,3868
2017-08-05T06:03:56.241Z,3860
2017-08-05T06:05:10.411Z,3852
2017-08-05T06:06:12.318Z,3856
2017-08-05T06:07:14.198Z,3852
2017-08-05T06:08:16.090Z,3848
2017-08-05T06:09:17.923Z,3844
2017-08-05T06:10:19.751Z,3840
2017-08-05T06:11:21.639Z,3836
2017-08-05T06:12:23.537Z,3828
2017-08-05T06:13:25.428Z,3828
2017-08-05T06:14:39.591Z,3824
2017-08-05T06:15:41.477Z,3816
2017-08-05T06:16:43.377Z,3804
2017-08-05T06:17:45.280Z,3788
2017-08-05T06:18:47.112Z,3776
2017-08-05T06:19:48.941Z,3768
2017-08-05T06:20:50.837Z,3756
2017-08-05T06:21:52.721Z,3752
2017-08-05T06:22:54.621Z,3748
2017-08-05T06:24:08.784Z,3748
2017-08-05T06:25:10.678Z,3752
2017-08-05T06:26:12.562Z,3756
2017-08-05T06:27:14.451Z,3752
2017-08-05T06:28:16.285Z,3752
2017-08-05T06:29:18.114Z,3748
2017-08-05T06:30:20.013Z,3748
2017-08-05T06:31:21.911Z,3740
2017-08-05T06:32:23.812Z,3740
2017-08-05T06:33:37.975Z,3736
2017-08-05T06:34:39.867Z,3736
2017-08-05T06:35:41.762Z,3736
2017-08-05T06:36:43.648Z,3740
2017-08-05T06:37:45.479Z,3744
2017-08-05T06:38:47.310Z,3748
2017-08-05T06:39:49.205Z,3752
2017-08-05T06:40:51.103Z,3752
2017-08-05T06:41:52.991Z,3756
2017-08-05T06:43:07.219Z,3764
2017-08-05T06:44:09.106Z,3772
2017-08-05T06:45:11.006Z,3772
2017-08-05T06:46:12.908Z,3768
2017-08-05T06:47:14.738Z,3768
2017-08-05T06:48:16.572Z,3768
2017-08-05T06:49:18.453Z,3768
2017-08-05T06:50:20.364Z,3768
2017-08-05T06:51:22.264Z,3772
2017-08-05T06:52:36.436Z,3768
2017-08-05T06:53:38.324Z,3768
2017-08-05T06:54:40.217Z,3764
2017-08-05T06:55:42.107Z,3760
2017-08-05T06:56:44.017Z,3760
2017-08-05T06:57:45.828Z,3760
2017-08-05T06:58:47.723Z,3752
2017-08-05T06:59:49.601Z,3752
2017-08-05T07:00:51.488Z,3748
2017-08-05T07:02:05.687Z,3744
2017-08-05T07:03:07.569Z,3736
2017-08-05T07:04:09.469Z,3736
2017-08-05T07:05:11.358Z,3728
2017-08-05T07:06:13.214Z,3728
2017-08-05T07:07:15.045Z,3724
2017-08-05T07:08:16.945Z,3716
2017-08-05T07:09:18.832Z,3712
2017-08-05T07:10:20.693Z,3712
2017-08-05T07:11:34.915Z,3708
2017-08-05T07:12:36.808Z,3700
2017-08-05T07:13:38.702Z,3696
2017-08-05T07:14:40.600Z,3688
2017-08-05T07:15:42.433Z,3680
2017-08-05T07:16:44.263Z,3672
2017-08-05T07:17:46.302Z,3672
2017-08-05T07:18:48.162Z,3664
2017-08-05T07:19:50.052Z,3660
2017-08-05T07:21:04.227Z,3652
2017-08-05T07:22:06.117Z,3640
2017-08-05T07:23:08.009Z,3628
2017-08-05T07:24:09.940Z,3620
2017-08-05T07:25:11.773Z,3620
2017-08-05T07:26:13.605Z,3612
2017-08-05T07:27:15.760Z,3604
2017-08-05T07:28:17.665Z,3600
2017-08-05T07:29:19.553Z,3600
2017-08-05T07:30:33.717Z,3596
2017-08-05T07:31:35.604Z,3584
2017-08-05T07:32:37.495Z,3580
2017-08-05T07:33:39.395Z,3576
2017-08-05T07:34:41.227Z,3580
2017-08-05T07:35:43.058Z,3580
2017-08-05T07:36:44.986Z,3584
2017-08-05T07:37:46.873Z,3596
2017-08-05T07:38:48.761Z,3604
2017-08-05T07:40:02.925Z,3608
2017-08-05T07:41:04.814Z,3600
2017-08-05T07:42:06.709Z,3592
2017-08-05T07:43:08.603Z,3584
2017-08-05T07:44:10.430Z,3576
2017-08-05T07:45:12.259Z,3576
2017-08-05T07:46:14.148Z,3616
2017-08-05T07:47:16.055Z,3628
2017-08-05T07:48:17.939Z,3632
2017-08-05T07:49:32.115Z,3628
2017-08-05T07:50:34.027Z,3648
2017-08-05T07:51:35.905Z,3660
2017-08-05T07:52:37.793Z,3672
2017-08-05T07:53:39.626Z,3696
2017-08-05T07:54:41.462Z,3708
2017-08-05T07:55:43.346Z,3720
2017-08-05T07:56:45.250Z,3724
2017-08-05T07:57:47.190Z,3732
2017-08-05T07:59:01.329Z,3740
2017-08-05T08:00:03.218Z,3748
2017-08-05T08:01:05.109Z,3748
2017-08-05T08:02:07.000Z,3748
2017-08-05T08:03:08.834Z,3752
2017-08-05T08:04:11.141Z,3752
2017-08-05T08:05:13.596Z,3756
2017-08-05T08:06:16.127Z,3756
2017-08-05T08:07:18.491Z,3752
2017-08-05T08:08:33.196Z,3524
2017-08-05T08:09:35.205Z,3508
2017-08-05T08:10:37.083Z,3748
2017-08-05T08:11:39.029Z,3808
2017-08-05T08:12:40.848Z,3860
2017-08-05T08:13:42.679Z,3880
2017-08-05T08:14:44.645Z,3840
2017-08-05T08:15:46.512Z,3832
2017-08-05T08:16:48.464Z,3812
2017-08-05T08:18:02.609Z,3764
2017-08-05T08:19:04.497Z,3692
2017-08-05T08:20:06.390Z,3796
2017-08-05T08:21:08.282Z,3948
2017-08-05T08:22:10.112Z,3964
2017-08-05T08:23:12.006Z,4032
2017-08-05T08:24:13.868Z,4140
2017-08-05T08:25:15.767Z,4044
2017-08-05T08:26:17.665Z,4120
2017-08-05T08:27:31.839Z,3992
2017-08-05T08:28:33.731Z,3928
2017-08-05T08:29:35.619Z,3864
2017-08-05T08:30:37.511Z,3812
2017-08-05T08:31:39.343Z,3788
2017-08-05T08:32:41.182Z,3768
2017-08-05T08:33:43.063Z,3764
2017-08-05T08:34:44.964Z,3764
2017-08-05T08:35:46.851Z,3764
2017-08-05T08:37:01.044Z,3748
2017-08-05T08:38:02.924Z,3720
2017-08-05T08:39:04.814Z,3712
2017-08-05T08:40:06.706Z,3680
2017-08-05T08:41:08.536Z,3672
2017-08-05T08:42:10.377Z,3644
2017-08-05T08:43:12.266Z,3632
2017-08-05T08:44:14.164Z,3612
2017-08-05T08:45:16.055Z,3608
2017-08-05T08:46:30.223Z,3608
2017-08-05T08:47:32.175Z,3604
2017-08-05T08:48:34.040Z,3608
2017-08-05T08:49:35.946Z,3616
2017-08-05T08:50:37.787Z,3620
2017-08-05T08:51:39.608Z,3620
2017-08-05T08:52:41.496Z,3616
2017-08-05T08:53:43.387Z,3608
2017-08-05T08:54:45.275Z,3596
2017-08-05T08:55:59.441Z,3580
2017-08-05T08:57:01.331Z,3568
2017-08-05T08:58:03.222Z,3564
2017-08-05T08:59:05.114Z,3556
2017-08-05T09:00:06.946Z,3560
2017-08-05T09:01:08.776Z,3568
2017-08-05T09:02:10.666Z,3576
2017-08-05T09:03:12.556Z,3580
2017-08-05T09:04:14.454Z,3596
2017-08-05T09:05:28.622Z,3692
2017-08-05T09:06:30.506Z,3692
2017-08-05T09:07:32.399Z,3688
2017-08-05T09:08:34.290Z,3748
2017-08-05T09:09:36.159Z,3776
2017-08-05T09:10:37.994Z,3804
2017-08-05T09:11:39.878Z,3796
2017-08-05T09:12:41.765Z,3764
2017-08-05T09:13:43.664Z,3736
2017-08-05T09:14:57.829Z,3728
2017-08-05T09:15:59.719Z,3728
2017-08-05T09:17:01.610Z,3748
2017-08-05T09:18:03.500Z,3768
2017-08-05T09:19:05.334Z,3768
2017-08-05T09:20:07.165Z,3960
2017-08-05T09:21:09.055Z,4140
2017-08-05T09:22:10.955Z,4104
2017-08-05T09:23:12.862Z,3960
2017-08-05T09:24:27.022Z,3836
2017-08-05T09:25:28.911Z,3792
2017-08-05T09:26:30.804Z,3756
2017-08-05T09:27:32.702Z,3708
2017-08-05T09:28:34.533Z,3656
2017-08-05T09:29:36.375Z,3636
2017-08-05T09:30:38.253Z,3628
2017-08-05T09:31:40.150Z,3620
2017-08-05T09:32:42.040Z,3608
2017-08-05T09:33:56.229Z,3616
2017-08-05T09:34:58.119Z,3656
2017-08-05T09:36:00.376Z,3704
2017-08-05T09:37:02.689Z,3732
2017-08-05T09:38:04.529Z,3740
2017-08-05T09:39:06.360Z,3756
2017-08-05T09:40:08.249Z,3736
2017-08-05T09:41:10.139Z,3716
2017-08-05T09:42:12.053Z,3720
2017-08-05T09:43:26.198Z,3760
2017-08-05T09:44:28.088Z,3732
2017-08-05T09:45:29.980Z,3864
2017-08-05T09:46:31.871Z,3980
2017-08-05T09:47:33.702Z,4048
2017-08-05T09:48:35.534Z,4088
2017-08-05T09:49:37.423Z,4052
2017-08-05T09:50:39.313Z,4128
2017-08-05T09:51:41.203Z,4236
2017-08-05T09:52:55.370Z,4276
2017-08-05T09:53:57.261Z,4328
2017-08-05T09:54:59.153Z,4332
2017-08-05T09:56:01.052Z,4720
2017-08-05T09:57:02.902Z,5372
2017-08-05T09:58:04.741Z,5528
2017-08-05T09:59:06.627Z,5660
2017-08-05T10:00:08.515Z,5680
2017-08-05T10:01:10.415Z,5688
2017-08-05T10:02:24.570Z,5112
2017-08-05T10:03:26.464Z,4688
2017-08-05T10:04:28.357Z,4440
2017-08-05T10:05:30.246Z,4516
2017-08-05T10:06:32.092Z,4436
2017-08-05T10:07:33.923Z,4580
2017-08-05T10:08:35.811Z,4520
2017-08-05T10:09:37.701Z,4860
2017-08-05T10:10:39.598Z,5156
2017-08-05T10:11:53.766Z,5868
2017-08-05T10:12:55.657Z,6940
2017-08-05T10:13:57.548Z,8004
2017-08-05T10:14:59.441Z,7788
2017-08-05T10:16:01.279Z,7312
2017-08-05T10:17:03.109Z,7080
2017-08-05T10:18:05.000Z,7148
2017-08-05T10:19:06.896Z,6864
2017-08-05T10:20:08.784Z,6056
2017-08-05T10:21:22.954Z,4752
2017-08-05T10:22:24.846Z,4112
2017-08-05T10:23:26.749Z,3892
2017-08-05T10:24:28.651Z,3768
2017-08-05T10:25:30.508Z,3744
2017-08-05T10:26:32.319Z,3736
2017-08-05T10:27:34.232Z,3712
2017-08-05T10:28:36.116Z,3712
2017-08-05T10:29:38.020Z,3672
2017-08-05T10:30:52.184Z,3608
2017-08-05T10:31:54.076Z,3564
2017-08-05T10:32:55.974Z,3520
2017-08-05T10:33:57.869Z,3488
2017-08-05T10:34:59.699Z,3488
2017-08-05T10:36:01.557Z,3508
2017-08-05T10:37:03.449Z,3500
2017-08-05T10:38:05.333Z,3500
2017-08-05T10:39:07.224Z,3488
2017-08-05T10:40:21.388Z,3488
2017-08-05T10:41:23.279Z,3488
2017-08-05T10:42:25.170Z,3504
2017-08-05T10:43:27.074Z,3504
2017-08-05T10:44:29.193Z,3504
2017-08-05T10:45:31.074Z,3524
2017-08-05T10:46:32.965Z,3492
2017-08-05T10:47:34.856Z,3476
2017-08-05T10:48:36.744Z,3460
2017-08-05T10:49:50.928Z,3460
2017-08-05T10:50:52.818Z,3476
2017-08-05T10:51:54.712Z,3520
2017-08-05T10:52:56.607Z,3520
2017-08-05T10:53:58.441Z,3364
2017-08-05T10:55:00.273Z,3404
2017-08-05T10:56:02.163Z,3328
2017-08-05T10:57:04.054Z,3324
2017-08-05T10:58:05.947Z,3596
2017-08-05T10:59:20.111Z,3700
2017-08-05T11:00:22.004Z,3764
2017-08-05T11:01:23.893Z,3876
2017-08-05T11:02:25.785Z,3936
2017-08-05T11:03:27.619Z,3904
2017-08-05T11:04:29.451Z,3932
2017-08-05T11:05:31.339Z,4088
2017-08-05T11:06:33.331Z,4156
2017-08-05T11:07:35.225Z,4380
2017-08-05T11:08:49.393Z,4508
2017-08-05T11:09:51.283Z,5040
2017-08-05T11:10:53.176Z,5560
2017-08-05T11:11:55.068Z,5980
2017-08-05T11:12:56.902Z,6372
2017-08-05T11:13:58.744Z,6564
2017-08-05T11:15:00.669Z,6812
2017-08-05T11:16:02.567Z,6976
2017-08-05T11:17:04.456Z,7124
2017-08-05T11:18:18.636Z,7368
2017-08-05T11:19:20.522Z,7732
2017-08-05T11:20:22.419Z,8224
2017-08-05T11:21:24.311Z,8848
2017-08-05T11:22:26.152Z,9064
2017-08-05T11:23:27.982Z,9032
2017-08-05T11:24:29.870Z,8984
2017-08-05T11:25:31.764Z,8924
2017-08-05T11:26:33.652Z,8848
2017-08-05T11:27:47.822Z,9068
2017-08-05T11:28:49.711Z,9544
2017-08-05T11:29:51.640Z,9676
2017-08-05T11:30:53.512Z,9212
2017-08-05T11:31:55.349Z,8652
2017-08-05T11:32:57.181Z,8392
2017-08-05T11:33:59.078Z,8040
2017-08-05T11:35:00.992Z,7884
2017-08-05T11:36:02.884Z,8060
2017-08-05T11:37:17.053Z,8312
2017-08-05T11:38:18.943Z,8244
2017-08-05T11:39:20.836Z,8048
2017-08-05T11:40:22.729Z,8116
2017-08-05T11:41:24.562Z,8464
2017-08-05T11:42:26.393Z,9180
2017-08-05T11:43:28.296Z,9968
2017-08-05T11:44:30.185Z,10388
2017-08-05T11:45:32.082Z,10252
2017-08-05T11:46:46.265Z,10060
2017-08-05T11:47:48.147Z,9856
2017-08-05T11:48:50.046Z,9708
2017-08-05T11:49:51.992Z,9868
2017-08-05T11:50:53.803Z,9588
2017-08-05T11:51:55.652Z,9812
2017-08-05T11:52:57.537Z,10236
2017-08-05T11:53:59.434Z,10436
2017-08-05T11:55:01.327Z,10484
2017-08-05T11:56:15.497Z,9988
2017-08-05T11:57:17.851Z,9132
2017-08-05T11:58:20.081Z,8144
2017-08-05T11:59:21.961Z,7672
2017-08-05T12:00:23.791Z,6992
2017-08-05T12:01:25.624Z,6664
2017-08-05T12:02:27.523Z,6348
2017-08-05T12:03:29.405Z,5824
2017-08-05T12:04:31.297Z,5140
2017-08-05T12:05:45.465Z,4852
2017-08-05T12:06:47.358Z,5156
2017-08-05T12:07:49.254Z,5348
2017-08-05T12:08:51.148Z,5292
2017-08-05T12:09:52.985Z,5256
2017-08-05T12:10:54.819Z,5232
2017-08-05T12:11:56.709Z,5044
2017-08-05T12:12:59.144Z,4936
2017-08-05T12:14:01.011Z,5012
2017-08-05T12:15:15.175Z,4776
2017-08-05T12:16:17.066Z,4480
2017-08-05T12:17:18.960Z,4232
2017-08-05T12:18:20.859Z,4064
2017-08-05T12:19:22.857Z,3948
2017-08-05T12:20:24.704Z,3868
2017-08-05T12:21:26.612Z,3872
2017-08-05T12:22:28.501Z,3884
2017-08-05T12:23:30.401Z,3860
2017-08-05T12:24:44.569Z,3800
2017-08-05T12:25:46.456Z,3832
2017-08-05T12:26:48.351Z,3528
2017-08-05T12:27:50.240Z,3356
2017-08-05T12:28:52.074Z,3408
2017-08-05T12:29:53.907Z,3520
2017-08-05T12:30:55.797Z,3592
2017-08-05T12:31:57.687Z,3616
2017-08-05T12:32:59.584Z,3564
2017-08-05T12:34:13.742Z,3592
2017-08-05T12:35:15.634Z,3596
2017-08-05T12:36:17.526Z,3592
2017-08-05T12:37:19.419Z,3584
2017-08-05T12:38:21.255Z,3588
2017-08-05T12:39:23.091Z,3584
2017-08-05T12:40:24.980Z,3576
2017-08-05T12:41:26.879Z,3572
2017-08-05T12:42:28.776Z,3596
2017-08-05T12:43:42.942Z,3604
2017-08-05T12:44:44.833Z,3556
2017-08-05T12:45:47.191Z,3548
2017-08-05T12:46:49.058Z,3544
2017-08-05T12:47:50.922Z,3536
2017-08-05T12:48:52.745Z,3536
2017-08-05T12:49:54.692Z,3536
2017-08-05T12:50:56.603Z,3372
2017-08-05T12:51:58.498Z,3448
2017-08-05T12:53:13.023Z,3544
2017-08-05T12:54:14.892Z,3520
2017-08-05T12:55:16.784Z,3584
2017-08-05T12:56:18.676Z,3624
2017-08-05T12:57:20.517Z,3688
2017-08-05T12:58:22.357Z,3704
2017-08-05T12:59:24.710Z,3636
2017-08-05T13:00:26.618Z,3724
2017-08-05T13:01:28.513Z,3740
2017-08-05T13:02:42.680Z,3676
2017-08-05T13:03:44.572Z,3664
2017-08-05T13:04:46.464Z,3664
2017-08-05T13:05:48.370Z,3700
2017-08-05T13:06:50.200Z,4280
2017-08-05T13:07:52.033Z,5076
2017-08-05T13:08:53.924Z,4956
2017-08-05T13:09:55.813Z,4540
2017-08-05T13:10:57.701Z,4336
2017-08-05T13:12:11.873Z,4128
2017-08-05T13:13:13.765Z,3972
2017-08-05T13:14:15.676Z,4144
2017-08-05T13:15:17.597Z,4388
2017-08-05T13:16:19.431Z,4616
2017-08-05T13:17:21.263Z,4828
2017-08-05T13:18:23.153Z,4840
2017-08-05T13:19:25.046Z,4704
2017-08-05T13:20:26.936Z,4520
2017-08-05T13:21:41.105Z,4276
2017-08-05T13:22:42.996Z,4072
2017-08-05T13:23:44.891Z,3924
2017-08-05T13:24:46.811Z,3836
2017-08-05T13:25:48.651Z,3808
2017-08-05T13:26:50.902Z,3800
2017-08-05T13:27:52.883Z,3796
2017-08-05T13:28:54.822Z,3796
2017-08-05T13:29:56.713Z,3792
2017-08-05T13:31:10.930Z,3820
2017-08-05T13:32:12.825Z,3956
2017-08-05T13:33:14.723Z,4236
2017-08-05T13:34:16.622Z,4520
2017-08-05T13:35:18.455Z,4648
2017-08-05T13:36:20.294Z,4396
2017-08-05T13:37:22.187Z,4280
2017-08-05T13:38:24.076Z,4448
2017-08-05T13:39:25.971Z,4304
2017-08-05T13:40:40.144Z,4336
2017-08-05T13:41:42.033Z,4368
2017-08-05T13:42:43.933Z,4296
2017-08-05T13:43:45.824Z,4288
2017-08-05T13:44:47.658Z,4404
2017-08-05T13:45:49.495Z,4468
2017-08-05T13:46:51.398Z,4396
2017-08-05T13:47:53.276Z,4256
2017-08-05T13:48:55.167Z,4172
2017-08-05T13:50:09.332Z,4124
2017-08-05T13:51:11.227Z,4284
2017-08-05T13:52:13.122Z,4268
2017-08-05T13:53:15.013Z,4228
2017-08-05T13:54:16.852Z,4164
2017-08-05T13:55:18.687Z,4096
2017-08-05T13:56:20.579Z,4024
2017-08-05T13:57:22.471Z,3976
2017-08-05T13:58:24.366Z,3976
2017-08-05T13:59:38.537Z,4012
2017-08-05T14:00:40.422Z,3840
2017-08-05T14:01:42.316Z,3964
2017-08-05T14:02:44.208Z,3980
2017-08-05T14:03:46.039Z,4064
2017-08-05T14:04:47.869Z,4568
2017-08-05T14:05:49.763Z,4544
2017-08-05T14:06:51.653Z,4044
2017-08-05T14:07:53.559Z,4360
2017-08-05T14:09:07.723Z,4436
2017-08-05T14:10:09.612Z,4568
2017-08-05T14:11:11.510Z,4264
2017-08-05T14:12:13.400Z,4204
2017-08-05T14:13:15.236Z,4404
2017-08-05T14:14:17.069Z,4544
2017-08-05T14:15:18.958Z,4504
2017-08-05T14:16:20.848Z,4372
2017-08-05T14:17:22.737Z,4268
2017-08-05T14:18:36.902Z,4240
2017-08-05T14:19:38.795Z,4264
2017-08-05T14:20:40.686Z,4308
2017-08-05T14:21:42.597Z,4352